createdAt,value
2018-01-14T00:00:02.968Z,30.47
2018-01-14T00:02:30.575Z,31.17
2018-01-14T00:04:58.165Z,31.17
2018-01-14T00:07:25.728Z,34.00
2018-01-14T00:09:53.318Z,31.67
2018-01-14T00:12:20.886Z,35.83
2018-01-14T00:14:48.453Z,31.17
2018-01-14T00:17:16.045Z,43.10
2018-01-14T00:19:43.611Z,37.17
2018-01-14T00:22:11.956Z,36.80
2018-01-14T00:24:39.525Z,35.53
2018-01-14T00:27:07.113Z,37.70
2018-01-14T00:29:34.673Z,34.80
2018-01-14T00:32:02.301Z,46.03
2018-01-14T00:34:29.869Z,34.87
2018-01-14T00:36:57.457Z,35.03
2018-01-14T00:39:25.022Z,38.90
2018-01-14T00:41:52.615Z,40.47
2018-01-14T00:44:20.182Z,45.37
2018-01-14T00:46:47.769Z,42.40
2018-01-14T00:49:16.097Z,38.23
2018-01-14T00:51:43.685Z,40.07
2018-01-14T00:54:11.256Z,33.73
2018-01-14T00:56:38.852Z,33.00
2018-01-14T00:59:06.448Z,40.20
2018-01-14T01:01:34.045Z,36.07
2018-01-14T01:04:02.371Z,37.60
2018-01-14T01:06:29.956Z,35.13
2018-01-14T01:08:57.566Z,35.40
2018-01-14T01:11:25.161Z,31.07
2018-01-14T01:13:52.729Z,38.73
2018-01-14T01:16:20.327Z,35.23
2018-01-14T01:18:48.661Z,31.70
2018-01-14T01:21:16.254Z,39.20
2018-01-14T01:23:43.825Z,32.10
2018-01-14T01:26:12.351Z,32.83
2018-01-14T01:28:39.922Z,31.53
2018-01-14T01:31:07.489Z,34.90
2018-01-14T01:33:35.082Z,40.70
2018-01-14T01:36:02.665Z,36.10
2018-01-14T01:38:30.254Z,38.10
2018-01-14T01:40:57.824Z,38.17
2018-01-14T01:43:25.421Z,40.07
2018-01-14T01:45:53.752Z,35.70
2018-01-14T01:48:21.352Z,34.83
2018-01-14T01:50:49.702Z,56.37
2018-01-14T01:53:17.313Z,36.07
2018-01-14T01:55:44.878Z,39.00
2018-01-14T01:58:12.471Z,34.37
2018-01-14T02:00:40.041Z,40.03
2018-01-14T02:03:07.640Z,33.23
2018-01-14T02:05:35.204Z,31.43
2018-01-14T02:08:02.796Z,33.83
2018-01-14T02:10:30.359Z,39.50
2018-01-14T02:12:57.956Z,35.53
2018-01-14T02:15:26.292Z,31.60
2018-01-14T02:17:53.881Z,32.10
2018-01-14T02:20:21.448Z,34.00
2018-01-14T02:22:49.038Z,38.07
2018-01-14T02:25:16.608Z,42.20
2018-01-14T02:27:44.193Z,34.37
2018-01-14T02:30:11.762Z,39.40
2018-01-14T02:32:41.005Z,43.70
2018-01-14T02:35:08.568Z,44.50
2018-01-14T02:37:36.177Z,39.50
2018-01-14T02:40:03.747Z,36.77
2018-01-14T02:42:31.366Z,59.53
2018-01-14T02:44:58.935Z,56.47
2018-01-14T02:47:26.504Z,62.27
2018-01-14T02:49:54.096Z,67.10
2018-01-14T02:52:23.346Z,62.87
2018-01-14T02:54:50.933Z,57.90
2018-01-14T02:57:18.500Z,56.63
2018-01-14T02:59:46.096Z,41.80
2018-01-14T03:02:13.668Z,35.97
2018-01-14T03:04:41.255Z,38.93
2018-01-14T03:07:08.828Z,44.70
2018-01-14T03:09:36.417Z,33.63
2018-01-14T03:12:03.985Z,39.03
2018-01-14T03:14:31.580Z,37.93
2018-01-14T03:16:59.157Z,53.03
2018-01-14T03:19:26.747Z,57.83
2018-01-14T03:21:55.090Z,59.23
2018-01-14T03:24:22.682Z,75.77
2018-01-14T03:26:50.250Z,56.80
2018-01-14T03:29:18.605Z,77.23
2018-01-14T03:31:46.178Z,43.50
2018-01-14T03:34:13.769Z,39.73
2018-01-14T03:36:41.335Z,51.53
2018-01-14T03:39:08.929Z,36.53
2018-01-14T03:41:36.497Z,42.33
2018-01-14T03:44:04.088Z,39.37
2018-01-14T03:46:31.666Z,37.90
2018-01-14T03:48:59.260Z,36.93
2018-01-14T03:51:26.825Z,38.20
2018-01-14T03:53:54.413Z,34.17
2018-01-14T03:56:22.754Z,36.57
2018-01-14T03:58:50.324Z,38.90
2018-01-14T04:01:17.916Z,41.83
2018-01-14T04:03:45.493Z,44.47
2018-01-14T04:06:13.102Z,116.70
2018-01-14T04:08:40.699Z,41.27
2018-01-14T04:11:08.288Z,46.17
2018-01-14T04:13:35.851Z,48.03
2018-01-14T04:16:03.433Z,53.27
2018-01-14T04:18:31.008Z,86.23
2018-01-14T04:20:58.609Z,45.00
2018-01-14T04:23:26.181Z,44.17
2018-01-14T04:25:53.779Z,35.30
2018-01-14T04:28:21.350Z,32.40
2018-01-14T04:30:49.706Z,43.03
2018-01-14T04:33:17.289Z,33.93
2018-01-14T04:35:44.882Z,39.03
2018-01-14T04:38:12.462Z,40.27
2018-01-14T04:40:40.056Z,42.60
2018-01-14T04:43:07.631Z,35.30
2018-01-14T04:45:35.997Z,45.10
2018-01-14T04:48:03.566Z,56.40
2018-01-14T04:50:31.170Z,49.43
2018-01-14T04:52:58.738Z,53.43
2018-01-14T04:55:26.321Z,71.07
2018-01-14T04:57:53.890Z,59.73
2018-01-14T05:00:21.479Z,47.97
2018-01-14T05:02:49.041Z,40.63
2018-01-14T05:05:17.496Z,47.50
2018-01-14T05:07:45.821Z,42.83
2018-01-14T05:10:13.412Z,52.83
2018-01-14T05:12:41.770Z,38.57
2018-01-14T05:15:09.904Z,38.37
2018-01-14T05:17:37.541Z,54.33
2018-01-14T05:20:05.869Z,37.77
2018-01-14T05:22:33.453Z,39.33
2018-01-14T05:25:01.017Z,42.80
2018-01-14T05:27:28.605Z,44.20
2018-01-14T05:29:56.175Z,37.50
2018-01-14T05:32:23.770Z,41.23
2018-01-14T05:34:51.336Z,46.73
2018-01-14T05:37:18.929Z,44.73
2018-01-14T05:39:46.489Z,40.60
2018-01-14T05:42:14.845Z,35.87
2018-01-14T05:44:42.412Z,31.47
2018-01-14T05:47:09.997Z,43.40
2018-01-14T05:49:38.345Z,37.70
2018-01-14T05:52:05.946Z,42.23
2018-01-14T05:54:33.518Z,44.30
2018-01-14T05:57:01.110Z,37.23
2018-01-14T05:59:28.677Z,33.93
2018-01-14T06:01:56.275Z,39.50
2018-01-14T06:04:24.614Z,36.17
2018-01-14T06:06:52.208Z,36.17
2018-01-14T06:09:20.546Z,40.57
2018-01-14T06:11:48.207Z,38.33
2018-01-14T06:14:16.459Z,38.30
2018-01-14T06:16:44.121Z,36.47
2018-01-14T06:19:11.692Z,45.60
2018-01-14T06:21:39.284Z,36.30
2018-01-14T06:24:07.620Z,47.57
2018-01-14T06:26:35.205Z,37.27
2018-01-14T06:29:02.785Z,43.27
2018-01-14T06:31:30.350Z,39.90
2018-01-14T06:33:58.705Z,45.53
2018-01-14T06:36:26.267Z,35.13
2018-01-14T06:38:53.924Z,40.57
2018-01-14T06:41:21.497Z,34.97
2018-01-14T06:43:49.086Z,36.53
2018-01-14T06:46:16.674Z,38.57
2018-01-14T06:48:44.268Z,44.53
2018-01-14T06:51:11.833Z,41.67
2018-01-14T06:53:40.185Z,44.53
2018-01-14T06:56:07.870Z,40.60
2018-01-14T06:58:35.461Z,34.80
2018-01-14T07:01:03.035Z,35.07
2018-01-14T07:03:30.631Z,41.97
2018-01-14T07:05:58.205Z,40.30
2018-01-14T07:08:25.990Z,36.97
2018-01-14T07:10:53.565Z,52.90
2018-01-14T07:13:21.162Z,38.67
2018-01-14T07:15:48.887Z,63.77
2018-01-14T07:18:16.508Z,64.43
2018-01-14T07:20:44.077Z,69.60
2018-01-14T07:23:12.435Z,48.50
2018-01-14T07:25:40.015Z,42.40
2018-01-14T07:28:07.609Z,50.03
2018-01-14T07:30:35.176Z,38.47
2018-01-14T07:33:02.895Z,51.00
2018-01-14T07:35:31.229Z,42.87
2018-01-14T07:37:58.832Z,41.33
2018-01-14T07:40:26.396Z,37.50
2018-01-14T07:42:54.220Z,60.73
2018-01-14T07:45:21.813Z,41.80
2018-01-14T07:47:49.382Z,46.83
2018-01-14T07:50:16.973Z,48.87
2018-01-14T07:52:44.541Z,46.47
2018-01-14T07:55:12.130Z,56.90
2018-01-14T07:57:39.702Z,44.03
2018-01-14T08:00:07.296Z,55.77
2018-01-14T08:02:34.863Z,44.03
2018-01-14T08:05:02.461Z,52.93
2018-01-14T08:07:30.036Z,48.67
2018-01-14T08:09:58.397Z,70.40
2018-01-14T08:12:25.969Z,65.10
2018-01-14T08:14:53.557Z,54.83
2018-01-14T08:17:21.127Z,93.17
2018-01-14T08:19:48.718Z,96.17
2018-01-14T08:22:16.296Z,55.17
2018-01-14T08:24:43.885Z,57.93
2018-01-14T08:27:12.213Z,63.77
2018-01-14T08:29:39.799Z,59.83
2018-01-14T08:32:07.368Z,46.87
2018-01-14T08:34:35.721Z,34.07
2018-01-14T08:37:03.293Z,49.20
2018-01-14T08:39:30.885Z,41.73
2018-01-14T08:41:58.458Z,31.57
2018-01-14T08:44:26.046Z,76.73
2018-01-14T08:46:54.386Z,139.63
2018-01-14T08:49:21.978Z,161.73
2018-01-14T08:51:49.551Z,96.20
2018-01-14T08:54:17.146Z,71.40
2018-01-14T08:56:44.713Z,39.50
2018-01-14T08:59:12.277Z,41.93
2018-01-14T09:01:45.590Z,31.53
2018-01-14T09:04:13.154Z,31.90
2018-01-14T09:06:40.746Z,29.30
2018-01-14T09:09:08.318Z,31.10
2018-01-14T09:11:35.909Z,26.30
2018-01-14T09:14:03.559Z,41.63
2018-01-14T09:16:31.184Z,31.20
2018-01-14T09:18:58.762Z,28.60
2018-01-14T09:21:26.353Z,24.63
2018-01-14T09:23:53.919Z,29.50
2018-01-14T09:26:21.506Z,25.30
2018-01-14T09:28:49.069Z,25.63
2018-01-14T09:31:16.665Z,32.50
2018-01-14T09:33:44.238Z,31.77
2018-01-14T09:36:11.826Z,27.47
2018-01-14T09:38:39.390Z,22.67
2018-01-14T09:41:06.977Z,30.70
2018-01-14T09:43:34.599Z,23.70
2018-01-14T09:46:02.193Z,27.00
2018-01-14T09:48:29.773Z,22.53
2018-01-14T09:50:57.807Z,20.43
2018-01-14T09:53:25.372Z,22.60
2018-01-14T09:55:52.970Z,25.20
2018-01-14T09:58:21.301Z,24.50
2018-01-14T10:00:48.892Z,22.00
2018-01-14T10:03:16.461Z,23.40
2018-01-14T10:05:45.348Z,26.33
2018-01-14T10:08:12.913Z,25.00
2018-01-14T10:10:41.271Z,22.80
2018-01-14T10:13:08.842Z,31.13
2018-01-14T10:15:37.202Z,25.33
2018-01-14T10:18:04.773Z,24.50
2018-01-14T10:20:32.349Z,24.90
2018-01-14T10:23:00.708Z,23.40
2018-01-14T10:25:29.045Z,20.70
2018-01-14T10:27:56.772Z,24.03
2018-01-14T10:30:24.340Z,20.90
2018-01-14T10:32:51.934Z,22.07
2018-01-14T10:35:19.512Z,26.83
2018-01-14T10:37:47.109Z,26.00
2018-01-14T10:40:14.687Z,27.07
2018-01-14T10:42:42.277Z,27.60
2018-01-14T10:45:09.848Z,25.53
2018-01-14T10:47:37.436Z,27.13
2018-01-14T10:50:05.768Z,23.80
2018-01-14T10:52:33.365Z,24.37
2018-01-14T10:55:00.945Z,24.30
2018-01-14T10:57:28.539Z,29.43
2018-01-14T10:59:56.108Z,26.30
2018-01-14T11:02:23.704Z,22.40
2018-01-14T11:04:52.054Z,29.70
2018-01-14T11:07:19.654Z,29.30
2018-01-14T11:09:47.238Z,23.30
2018-01-14T11:12:14.834Z,24.80
2018-01-14T11:14:42.433Z,25.83
2018-01-14T11:17:10.026Z,23.30
2018-01-14T11:19:37.606Z,26.83
2018-01-14T11:22:05.200Z,26.63
2018-01-14T11:24:33.540Z,25.90
2018-01-14T11:27:01.142Z,26.60
2018-01-14T11:29:53.455Z,24.43
2018-01-14T11:32:21.054Z,25.10
2018-01-14T11:34:48.903Z,23.40
2018-01-14T11:37:18.062Z,28.90
2018-01-14T11:39:48.066Z,26.77
2018-01-14T11:42:16.476Z,27.50
2018-01-14T11:44:44.047Z,27.13
2018-01-14T11:47:11.650Z,27.57
2018-01-14T11:49:39.265Z,26.60
2018-01-14T11:52:06.833Z,31.37
2018-01-14T11:54:34.429Z,30.20
2018-01-14T11:57:01.996Z,33.87
2018-01-14T11:59:30.353Z,27.30
2018-01-14T12:01:57.922Z,29.23
2018-01-14T12:04:25.515Z,24.37
2018-01-14T12:06:53.085Z,32.30
2018-01-14T12:09:20.686Z,23.03
2018-01-14T12:11:48.257Z,28.63
2018-01-14T12:14:15.853Z,25.73
2018-01-14T12:16:43.421Z,33.43
2018-01-14T12:19:11.014Z,25.93
2018-01-14T12:21:38.581Z,25.80
2018-01-14T12:24:06.176Z,26.60
2018-01-14T12:26:33.740Z,24.80
2018-01-14T12:29:01.336Z,27.83
2018-01-14T12:31:28.896Z,26.30
2018-01-14T12:37:06.831Z,24.40
2018-01-14T12:39:34.428Z,26.50
2018-01-14T12:42:01.997Z,28.90
2018-01-14T12:44:29.593Z,28.77
2018-01-14T12:46:57.937Z,28.63
2018-01-14T12:49:25.534Z,24.40
2018-01-14T12:51:53.105Z,26.43
2018-01-14T12:54:20.696Z,23.20
2018-01-14T12:56:48.259Z,25.63
2018-01-14T12:59:15.861Z,24.90
2018-01-14T13:01:44.230Z,23.40
2018-01-14T13:04:12.592Z,30.63
2018-01-14T13:06:40.171Z,26.27
2018-01-14T13:09:07.759Z,26.87
2018-01-14T13:11:35.368Z,27.80
2018-01-14T13:14:02.957Z,21.50
2018-01-14T13:16:30.525Z,29.03
2018-01-14T13:18:58.260Z,27.80
2018-01-14T13:21:25.842Z,25.73
2018-01-14T13:23:54.243Z,29.50
2018-01-14T13:26:21.816Z,25.23
2018-01-14T13:28:49.415Z,24.57
2018-01-14T13:31:17.061Z,25.07
2018-01-14T13:33:44.637Z,26.60
2018-01-14T13:36:12.806Z,28.73
2018-01-14T13:38:40.378Z,25.73
2018-01-14T13:41:08.787Z,25.60
2018-01-14T13:43:36.359Z,26.00
2018-01-14T13:46:03.953Z,24.73
2018-01-14T13:48:32.654Z,25.00
2018-01-14T13:51:00.247Z,23.10
2018-01-14T13:53:27.898Z,27.40
2018-01-14T13:55:55.493Z,27.37
2018-01-14T13:58:23.056Z,25.37
2018-01-14T14:00:50.650Z,23.60
2018-01-14T14:03:18.261Z,24.20
2018-01-14T14:05:45.852Z,29.30
2018-01-14T14:08:13.517Z,25.90
2018-01-14T14:10:41.157Z,25.63
2018-01-14T14:13:09.496Z,24.27
2018-01-14T14:15:37.086Z,27.27
2018-01-14T14:18:05.968Z,26.50
2018-01-14T14:20:33.843Z,22.63
2018-01-14T14:23:01.453Z,22.00
2018-01-14T14:25:29.084Z,24.57
2018-01-14T14:27:56.658Z,24.40
2018-01-14T14:30:24.254Z,28.00
2018-01-14T14:32:51.868Z,22.70
2018-01-14T14:35:20.246Z,28.67
2018-01-14T14:37:47.817Z,25.57
2018-01-14T14:40:15.423Z,24.63
2018-01-14T14:42:44.294Z,25.93
2018-01-14T14:45:11.948Z,20.40
2018-01-14T14:47:39.710Z,35.57
2018-01-14T14:50:07.478Z,31.43
2018-01-14T14:52:35.892Z,24.47
2018-01-14T14:55:03.457Z,25.30
2018-01-14T14:57:31.087Z,28.97
2018-01-14T14:59:58.762Z,20.53
2018-01-14T15:02:26.356Z,24.50
2018-01-14T15:04:53.927Z,25.07
2018-01-14T15:07:21.555Z,25.40
2018-01-14T15:09:49.126Z,24.33
2018-01-14T15:12:16.756Z,21.37
2018-01-14T15:14:44.321Z,28.50
2018-01-14T15:17:11.913Z,23.00
2018-01-14T15:19:39.531Z,24.37
2018-01-14T15:22:07.120Z,25.87
2018-01-14T15:24:34.697Z,26.13
2018-01-14T15:27:02.336Z,24.90
2018-01-14T15:29:29.898Z,31.50
2018-01-14T15:31:58.252Z,52.07
2018-01-14T15:34:25.859Z,44.17
2018-01-14T15:36:53.449Z,41.97
2018-01-14T15:39:21.251Z,28.20
2018-01-14T15:41:48.898Z,19.10
2018-01-14T15:44:16.461Z,21.77
2018-01-14T15:46:44.054Z,23.40
2018-01-14T15:49:11.621Z,22.63
2018-01-14T15:51:39.236Z,20.33
2018-01-14T15:54:06.851Z,21.20
2018-01-14T15:56:34.464Z,17.37
2018-01-14T15:59:04.254Z,16.30
2018-01-14T16:01:31.821Z,17.77
2018-01-14T16:03:59.457Z,16.47
2018-01-14T16:06:31.472Z,23.83
2018-01-14T16:08:59.102Z,28.93
2018-01-14T16:11:26.715Z,26.40
2018-01-14T16:13:56.468Z,16.97
2018-01-14T16:16:26.420Z,22.50
2018-01-14T16:18:56.167Z,18.67
2018-01-14T16:21:30.638Z,24.67
2018-01-14T16:23:58.549Z,22.80
2018-01-14T16:26:26.166Z,20.87
2018-01-14T16:28:53.782Z,24.83
2018-01-14T16:31:22.116Z,20.83
2018-01-14T16:33:49.712Z,38.33
2018-01-14T16:36:18.050Z,50.47
2018-01-14T16:38:45.679Z,27.07
2018-01-14T16:41:13.291Z,26.63
2018-01-14T16:43:40.892Z,36.60
2018-01-14T16:46:08.464Z,30.63
2018-01-14T16:48:36.049Z,34.83
2018-01-14T16:51:03.845Z,25.83
2018-01-14T16:53:31.442Z,25.90
2018-01-14T16:55:59.829Z,22.07
2018-01-14T16:58:27.464Z,40.87
2018-01-14T17:00:55.036Z,95.20
2018-01-14T17:03:22.632Z,29.57
2018-01-14T17:05:50.204Z,28.23
2018-01-14T17:08:17.830Z,34.53
2018-01-14T17:10:45.436Z,50.67
2018-01-14T17:13:13.071Z,49.20
2018-01-14T17:15:40.640Z,32.37
2018-01-14T17:18:08.281Z,31.13
2018-01-14T17:20:36.131Z,40.30
2018-01-14T17:23:03.718Z,25.00
2018-01-14T17:25:31.318Z,48.73
2018-01-14T17:27:59.123Z,38.03
2018-01-14T17:30:26.717Z,28.03
2018-01-14T17:32:54.296Z,30.60
2018-01-14T17:35:22.695Z,27.03
2018-01-14T17:37:50.270Z,35.63
2018-01-14T17:40:18.095Z,37.57
2018-01-14T17:42:47.255Z,25.73
2018-01-14T17:45:15.617Z,18.93
2018-01-14T17:47:43.419Z,32.47
2018-01-14T17:50:11.010Z,28.90
2018-01-14T17:52:38.580Z,32.50
2018-01-14T17:55:06.419Z,22.13
2018-01-14T17:57:34.219Z,21.87
2018-01-14T18:00:01.816Z,28.73
2018-01-14T18:02:29.396Z,30.57
2018-01-14T18:04:57.215Z,26.60
2018-01-14T18:07:24.781Z,25.57
2018-01-14T18:09:52.415Z,19.03
2018-01-14T18:12:20.020Z,17.40
2018-01-14T18:14:47.646Z,23.60
2018-01-14T18:17:25.126Z,19.63
2018-01-14T18:19:52.946Z,21.90
2018-01-14T18:22:21.523Z,18.47
2018-01-14T18:24:49.350Z,21.00
2018-01-14T18:27:17.146Z,24.50
2018-01-14T18:29:44.744Z,19.13
2018-01-14T18:32:12.571Z,18.83
2018-01-14T18:34:40.235Z,25.70
2018-01-14T18:37:07.805Z,20.60
2018-01-14T18:39:35.436Z,20.87
2018-01-14T18:42:03.327Z,23.00
2018-01-14T18:44:31.684Z,22.27
2018-01-14T18:46:59.314Z,26.63
2018-01-14T18:49:26.932Z,18.07
2018-01-14T18:51:54.567Z,17.00
2018-01-14T18:54:22.180Z,15.57
2018-01-14T18:56:49.903Z,19.57
2018-01-14T18:59:18.752Z,17.87
2018-01-14T19:01:47.609Z,19.50
2018-01-14T19:04:15.214Z,23.80
2018-01-14T19:06:42.805Z,24.03
2018-01-14T19:09:10.426Z,16.57
2018-01-14T19:11:38.152Z,30.20
2018-01-14T19:14:05.728Z,36.57
2018-01-14T19:16:33.370Z,20.97
2018-01-14T19:19:00.941Z,26.10
2018-01-14T19:21:28.532Z,37.23
2018-01-14T19:23:56.138Z,30.50
2018-01-14T19:26:24.494Z,42.17
2018-01-14T19:28:52.065Z,119.43
2018-01-14T19:31:20.474Z,36.40
2018-01-14T19:33:49.183Z,60.70
2018-01-14T19:36:17.012Z,42.63
2018-01-14T19:38:44.637Z,34.60
2018-01-14T19:41:12.732Z,33.63
2018-01-14T19:43:40.354Z,30.67
2018-01-14T19:46:08.010Z,55.13
2018-01-14T19:48:38.562Z,32.17
2018-01-14T19:51:06.755Z,30.00
2018-01-14T19:53:35.732Z,32.83
2018-01-14T19:56:08.130Z,32.07
2018-01-14T19:58:37.767Z,34.93
2018-01-14T20:01:07.344Z,32.70
2018-01-14T20:03:35.215Z,25.73
2018-01-14T20:06:03.041Z,20.73
2018-01-14T20:08:30.788Z,26.03
2018-01-14T20:10:58.461Z,22.07
2018-01-14T20:13:26.055Z,22.73
2018-01-14T20:15:53.676Z,22.20
2018-01-14T20:18:21.340Z,22.00
2018-01-14T20:20:48.952Z,22.33
2018-01-14T20:23:16.595Z,27.27
2018-01-14T20:25:44.979Z,26.20
2018-01-14T20:28:12.622Z,28.90
2018-01-14T20:30:40.248Z,22.37
2018-01-14T20:33:07.892Z,28.00
2018-01-14T20:35:35.836Z,22.33
2018-01-14T20:38:03.498Z,24.03
2018-01-14T20:40:31.113Z,21.67
2018-01-14T20:42:59.565Z,18.70
2018-01-14T20:45:27.247Z,24.77
2018-01-14T20:47:54.893Z,35.07
2018-01-14T20:50:24.406Z,35.00
2018-01-14T20:52:53.876Z,25.43
2018-01-14T20:55:21.548Z,28.40
2018-01-14T20:57:49.185Z,24.73
2018-01-14T21:00:17.008Z,30.30
2018-01-14T21:02:44.645Z,24.37
2018-01-14T21:05:12.276Z,21.30
2018-01-14T21:07:39.926Z,22.50
2018-01-14T21:10:07.548Z,21.83
2018-01-14T21:12:35.279Z,23.13
2018-01-14T21:15:02.891Z,24.70
2018-01-14T21:17:30.482Z,21.10
2018-01-14T21:19:58.122Z,21.50
2018-01-14T21:22:26.537Z,42.20
2018-01-14T21:24:54.158Z,24.77
2018-01-14T21:27:22.569Z,29.73
2018-01-14T21:29:50.133Z,26.40
2018-01-14T21:32:17.700Z,77.17
2018-01-14T21:34:45.341Z,52.03
2018-01-14T21:37:12.961Z,22.47
2018-01-14T21:39:41.363Z,39.87
2018-01-14T21:42:08.987Z,32.23
2018-01-14T21:44:36.628Z,20.33
2018-01-14T21:47:05.162Z,26.97
2018-01-14T21:49:32.795Z,23.20
2018-01-14T21:52:00.413Z,24.70
2018-01-14T21:54:28.062Z,38.23
2018-01-14T21:56:55.689Z,28.07
2018-01-14T21:59:24.220Z,32.87
2018-01-14T22:01:51.842Z,31.53
2018-01-14T22:04:19.479Z,26.03
2018-01-14T22:06:47.049Z,32.30
2018-01-14T22:09:15.400Z,23.70
2018-01-14T22:11:42.979Z,22.13
2018-01-14T22:14:10.622Z,17.53
2018-01-14T22:16:38.194Z,23.20
2018-01-14T22:19:05.838Z,21.03
2018-01-14T22:21:33.464Z,26.53
2018-01-14T22:24:01.103Z,20.17
2018-01-14T22:26:28.736Z,23.57
2018-01-14T22:28:56.377Z,26.00
2018-01-14T22:31:23.940Z,25.57
2018-01-14T22:33:51.555Z,27.53
2018-01-14T22:36:19.193Z,46.37
2018-01-14T22:38:47.588Z,56.53
2018-01-14T22:41:15.228Z,38.97
2018-01-14T22:43:43.064Z,35.00
2018-01-14T22:46:10.653Z,28.30
2018-01-14T22:48:38.987Z,54.17
2018-01-14T22:51:06.581Z,33.37
2018-01-14T22:53:34.198Z,28.77
2018-01-14T22:56:01.831Z,29.70
2018-01-14T22:58:29.440Z,23.40
2018-01-14T23:00:57.080Z,25.97
2018-01-14T23:03:24.695Z,50.40
2018-01-14T23:05:53.049Z,41.20
2018-01-14T23:08:20.652Z,69.63
2018-01-14T23:10:48.292Z,46.70
2018-01-14T23:13:15.863Z,44.40
2018-01-14T23:15:43.476Z,101.07
2018-01-14T23:18:11.041Z,87.30
2018-01-14T23:20:38.631Z,46.43
2018-01-14T23:23:06.216Z,40.43
2018-01-14T23:25:33.819Z,100.37
2018-01-14T23:28:01.402Z,50.07
2018-01-14T23:30:28.998Z,30.13
2018-01-14T23:32:56.577Z,67.77
2018-01-14T23:35:24.170Z,36.40
2018-01-14T23:37:51.733Z,43.00
2018-01-14T23:40:20.091Z,28.23
2018-01-14T23:42:47.662Z,30.77
2018-01-14T23:45:15.249Z,28.77
2018-01-14T23:47:42.814Z,29.77
2018-01-14T23:50:10.406Z,23.13
2018-01-14T23:52:37.979Z,26.43
2018-01-14T23:55:05.547Z,28.87
2018-01-14T23:57:33.169Z,32.47
